Terminal Aerodrome Forecast
Issued by NWS Topeka, KS

Home | Current Version | Previous Version | Graphics & Text | Print | Product List | Glossary Off
Versions: 1 2 3 4 5 6 7 8 9 10 11 12 13 14 15 16 17 18

000
FTUS43 KTOP 181131
TAFTOP
TAF
KTOP 181131Z 1812/1912 18007KT P6SM FEW250
      TEMPO 1812/1815 3SM BR
     FM190500 17007KT P6SM BKN025
     FM190700 16006KT 5SM BR SCT004 BKN008=

USA.gov is the U.S. government's official web portal to all federal, state and local government web resources and services.